Time;durP1;ratioP1;P1;durP2;ratioP2;P2;SDS_P1;SDS_P2;PMS_P1;PMS_P2;Temp;Humidity;BMP_temperature;BMP_pressure;BME280_temperature;BME280_humidity;BME280_pressure;Samples;Min_cycle;Max_cycle;Signal;HPM_P1;HPM_P2
2023/08/27 04:22:32;;;;;;;8.38;5.63;;;;;;;16.32;100.00;99613.25;5089373;28;20167;-72
2023/08/27 04:24:58;;;;;;;10.00;4.85;;;;;;;16.32;100.00;99607.88;5088194;28;20468;-71
2023/08/27 04:27:25;;;;;;;9.85;5.38;;;;;;;16.31;100.00;99608.13;5088088;28;20521;-71
2023/08/27 04:29:50;;;;;;;12.55;6.00;;;;;;;16.33;100.00;99604.16;5087898;28;20051;-72
2023/08/27 04:32:16;;;;;;;17.55;6.22;;;;;;;16.34;100.00;99596.91;5088101;28;20039;-71
2023/08/27 04:34:41;;;;;;;8.38;5.60;;;;;;;16.37;100.00;99591.91;5087968;28;20505;-71
2023/08/27 04:37:07;;;;;;;13.30;5.43;;;;;;;16.39;100.00;99586.31;5087914;28;20045;-71
2023/08/27 04:39:32;;;;;;;9.40;4.93;;;;;;;16.28;100.00;99583.31;5087977;28;20568;-72
2023/08/27 04:41:58;;;;;;;7.95;4.45;;;;;;;16.32;100.00;99601.69;5087943;28;20047;-71
2023/08/27 04:44:23;;;;;;;9.23;5.07;;;;;;;16.29;100.00;99611.00;5087888;28;20402;-71
2023/08/27 04:46:49;;;;;;;10.30;6.07;;;;;;;16.28;100.00;99610.19;5089061;28;20040;-71
2023/08/27 04:49:14;;;;;;;10.60;5.80;;;;;;;16.33;100.00;99609.53;5087545;28;20040;-72
2023/08/27 04:51:40;;;;;;;11.88;5.63;;;;;;;16.33;100.00;99593.41;5087624;28;20035;-71
2023/08/27 04:54:05;;;;;;;9.50;4.80;;;;;;;16.35;100.00;99593.97;5089061;28;20112;-72
2023/08/27 04:56:32;;;;;;;9.18;4.68;;;;;;;16.33;100.00;99604.16;5087600;28;20520;-72
2023/08/27 04:58:58;;;;;;;8.82;4.70;;;;;;;16.32;100.00;99613.25;5087474;28;20134;-72
2023/08/27 05:01:23;;;;;;;11.38;5.43;;;;;;;16.28;100.00;99622.81;5087694;28;20037;-71
2023/08/27 05:03:49;;;;;;;8.02;4.97;;;;;;;16.31;100.00;99627.75;5087500;28;20040;-71
2023/08/27 05:06:14;;;;;;;8.25;4.90;;;;;;;16.32;100.00;99621.31;5087361;28;20032;-72
2023/08/27 05:08:41;;;;;;;7.28;4.72;;;;;;;16.26;100.00;99622.22;5087395;28;20032;-71
2023/08/27 05:11:07;;;;;;;;;;;;;;;16.31;100.00;99614.31;5087795;28;20063;-72
2023/08/27 05:13:33;;;;;;;6.30;3.90;;;;;;;16.29;100.00;99605.63;5087310;28;19923;-72
2023/08/27 05:15:59;;;;;;;7.25;4.45;;;;;;;16.28;100.00;99614.75;5087150;28;20040;-72
2023/08/27 05:18:25;;;;;;;8.73;4.03;;;;;;;16.26;100.00;99614.16;5087096;28;20044;-71
2023/08/27 05:20:50;;;;;;;9.13;4.30;;;;;;;16.27;100.00;99608.56;5086776;28;20035;-71
2023/08/27 05:23:17;;;;;;;8.23;5.40;;;;;;;16.28;100.00;99606.69;5087075;28;20064;-72
2023/08/27 05:25:44;;;;;;;9.75;4.60;;;;;;;16.29;100.00;99609.13;5088255;28;20044;-72
2023/08/27 05:28:09;;;;;;;8.55;4.60;;;;;;;16.33;100.00;99614.91;5086897;28;20491;-71
2023/08/27 05:30:36;;;;;;;8.77;5.35;;;;;;;16.37;100.00;99621.47;5086697;28;20097;-72
2023/08/27 05:33:02;;;;;;;8.30;4.78;;;;;;;16.41;100.00;99621.81;5079656;28;20060;-71
2023/08/27 05:35:27;;;;;;;6.70;4.20;;;;;;;16.42;100.00;99626.97;5073282;28;20045;-71
2023/08/27 05:37:53;;;;;;;18.00;4.47;;;;;;;16.46;100.00;99620.09;5073354;28;20047;-72
2023/08/27 05:40:18;;;;;;;7.72;4.55;;;;;;;16.48;100.00;99612.63;5073278;28;20404;-71
2023/08/27 05:42:44;;;;;;;7.40;4.40;;;;;;;16.56;100.00;99600.72;5073189;28;20063;-72
2023/08/27 05:45:09;;;;;;;7.47;4.13;;;;;;;16.59;100.00;99588.72;5073089;28;20044;-71
2023/08/27 05:47:35;;;;;;;14.65;4.13;;;;;;;16.60;100.00;99590.34;5073229;28;20045;-71
2023/08/27 05:50:01;;;;;;;8.80;4.05;;;;;;;16.62;100.00;99590.94;5072884;28;20042;-72
2023/08/27 05:52:27;;;;;;;7.28;4.47;;;;;;;16.65;100.00;99601.25;5072928;28;20038;-72
2023/08/27 05:54:54;;;;;;;8.25;4.35;;;;;;;16.69;100.00;99595.19;5072954;28;20036;-72
2023/08/27 05:57:19;;;;;;;9.35;4.68;;;;;;;16.72;100.00;99588.56;5072969;28;20094;-72
2023/08/27 05:59:45;;;;;;;10.55;4.78;;;;;;;16.78;100.00;99591.16;5072665;28;20041;-71
2023/08/27 06:02:13;;;;;;;9.48;4.68;;;;;;;16.78;100.00;99604.59;5072833;28;20033;-71
2023/08/27 06:04:40;;;;;;;9.88;4.63;;;;;;;16.81;100.00;99619.44;5072788;28;20059;-71
2023/08/27 06:07:07;;;;;;;10.32;4.35;;;;;;;16.84;100.00;99621.69;5072764;28;20043;-71
2023/08/27 06:09:33;;;;;;;9.10;4.82;;;;;;;16.85;100.00;99614.44;5074308;28;20453;-71
2023/08/27 06:11:58;;;;;;;7.18;4.32;;;;;;;16.89;100.00;99616.47;5072756;28;20039;-71
2023/08/27 06:14:24;;;;;;;7.00;4.38;;;;;;;16.97;100.00;99620.69;5072702;28;20047;-70
2023/08/27 06:16:49;;;;;;;6.95;4.18;;;;;;;16.97;100.00;99612.63;5073840;28;20048;-70
2023/08/27 06:19:15;;;;;;;7.43;4.30;;;;;;;17.00;100.00;99617.53;5072371;28;20383;-71
2023/08/27 06:21:40;;;;;;;9.18;4.32;;;;;;;17.05;100.00;99628.41;5085845;28;20040;-71
2023/08/27 06:24:06;;;;;;;8.52;4.25;;;;;;;17.06;100.00;99627.38;5092716;28;20032;-70
2023/08/27 06:26:31;;;;;;;8.10;4.45;;;;;;;17.07;100.00;99619.06;5092523;28;20410;-70
2023/08/27 06:28:57;;;;;;;10.70;3.88;;;;;;;17.08;100.00;99620.72;5092378;28;20032;-71
2023/08/27 06:31:22;;;;;;;7.85;4.13;;;;;;;17.12;100.00;99622.94;5093826;28;20126;-71
2023/08/27 06:33:48;;;;;;;7.32;3.90;;;;;;;17.15;100.00;99614.38;5092905;28;20040;-68
2023/08/27 06:36:13;;;;;;;6.43;4.05;;;;;;;17.19;100.00;99612.88;5092511;28;20032;-69
2023/08/27 06:38:39;;;;;;;6.90;3.88;;;;;;;17.24;100.00;99600.38;5092297;28;20575;-69
2023/08/27 06:41:04;;;;;;;7.20;4.00;;;;;;;17.27;100.00;99599.91;5092061;28;20044;-69
2023/08/27 06:43:32;;;;;;;8.20;3.83;;;;;;;17.27;100.00;99599.91;5091908;28;20036;-69
2023/08/27 06:45:58;;;;;;;4.88;3.70;;;;;;;17.26;100.00;99605.53;5091696;28;20636;-68
2023/08/27 06:48:23;;;;;;;10.00;3.67;;;;;;;17.26;100.00;99611.72;5092202;28;20503;-69
2023/08/27 06:50:49;;;;;;;7.25;4.00;;;;;;;17.27;100.00;99621.44;5093253;28;20482;-70
2023/08/27 06:53:14;;;;;;;6.53;4.15;;;;;;;17.27;100.00;99623.31;5092117;28;20119;-69
2023/08/27 06:55:41;;;;;;;7.30;3.65;;;;;;;17.27;100.00;99628.69;5091995;28;20040;-72
2023/08/27 06:58:06;;;;;;;8.57;3.60;;;;;;;17.26;100.00;99627.06;5092006;28;20586;-69
2023/08/27 07:00:32;;;;;;;9.23;3.92;;;;;;;17.24;100.00;99626.47;5075467;28;20039;-69
2023/08/27 07:02:57;;;;;;;6.95;3.78;;;;;;;17.28;100.00;99630.34;5095173;28;20119;-69
2023/08/27 07:05:23;;;;;;;6.38;3.88;;;;;;;17.33;100.00;99619.69;5093072;28;20031;-70
2023/08/27 07:07:49;;;;;;;8.75;3.97;;;;;;;17.31;100.00;99619.09;5092797;28;20521;-68
2023/08/27 07:10:15;;;;;;;6.03;3.88;;;;;;;17.38;100.00;99609.03;5091038;28;20032;-70
2023/08/27 07:12:40;;;;;;;5.70;3.88;;;;;;;17.42;100.00;99607.53;5093073;28;20064;-68
2023/08/27 07:15:07;;;;;;;8.65;4.25;;;;;;;17.51;100.00;99603.44;5091423;28;20494;-69
2023/08/27 07:17:33;;;;;;;10.73;3.73;;;;;;;17.55;100.00;99604.63;5091609;28;20067;-68
2023/08/27 07:20:00;;;;;;;9.45;4.30;;;;;;;17.63;100.00;99598.06;5092591;28;20274;-70
2023/08/27 07:22:25;;;;;;;6.35;4.03;;;;;;;17.68;100.00;99598.19;5091454;28;20123;-69
2023/08/27 07:24:51;;;;;;;6.45;4.25;;;;;;;17.75;100.00;99595.38;5091433;28;20062;-70
2023/08/27 07:27:17;;;;;;;8.27;3.88;;;;;;;17.77;100.00;99602.16;5091441;28;20486;-70
2023/08/27 07:29:43;;;;;;;6.63;4.03;;;;;;;17.87;100.00;99609.66;5095664;28;20039;-69
2023/08/27 07:32:08;;;;;;;8.52;4.50;;;;;;;17.89;100.00;99608.38;5111367;28;20093;-69
2023/08/27 07:34:34;;;;;;;6.68;3.55;;;;;;;17.97;100.00;99625.22;5094960;28;20043;-50
2023/08/27 07:37:00;;;;;;;8.23;4.00;;;;;;;18.04;100.00;99645.59;5111751;28;20035;-51
2023/08/27 07:39:25;;;;;;;9.90;4.00;;;;;;;18.14;100.00;99655.78;5111309;28;20035;-56
2023/08/27 07:41:51;;;;;;;7.25;4.30;;;;;;;18.16;100.00;99673.34;5111558;28;20406;-51
2023/08/27 07:44:17;;;;;;;7.30;4.25;;;;;;;18.20;100.00;99675.59;5111542;28;20412;-54
2023/08/27 07:46:43;;;;;;;9.10;3.85;;;;;;;18.29;100.00;99690.34;5112397;28;20024;-51
2023/08/27 07:49:09;;;;;;;8.73;3.60;;;;;;;18.36;100.00;99682.94;5103574;28;20642;-54
2023/08/27 07:51:35;;;;;;;5.40;4.05;;;;;;;18.43;100.00;99681.72;5090880;28;20050;-51
2023/08/27 07:54:01;;;;;;;9.93;4.40;;;;;;;18.44;100.00;99683.38;5090938;28;20518;-52
2023/08/27 07:56:26;;;;;;;7.25;4.40;;;;;;;18.49;100.00;99682.66;5090569;28;20036;-51
2023/08/27 07:58:52;;;;;;;9.90;4.60;;;;;;;18.53;100.00;99688.41;5090523;28;20460;-51
2023/08/27 08:01:18;;;;;;;8.55;4.20;;;;;;;18.53;100.00;99683.84;5090885;28;20034;-50
2023/08/27 08:03:44;;;;;;;6.28;4.53;;;;;;;18.46;100.00;99676.94;5090863;28;20028;-65
2023/08/27 08:06:09;;;;;;;8.52;4.60;;;;;;;18.49;100.00;99687.25;5092150;28;20555;-65
2023/08/27 08:08:35;;;;;;;8.02;4.60;;;;;;;18.43;100.00;99695.22;5092014;28;20490;-65
2023/08/27 08:11:01;;;;;;;8.88;4.28;;;;;;;18.45;100.00;99689.59;5091896;28;20023;-65
2023/08/27 08:13:26;;;;;;;6.53;4.38;;;;;;;18.51;100.00;99685.13;5092042;28;20032;-65
2023/08/27 08:15:52;;;;;;;8.93;4.70;;;;;;;18.52;100.00;99678.66;5091878;28;20043;-65
2023/08/27 08:18:18;;;;;;;11.05;4.40;;;;;;;18.54;100.00;99687.34;5091853;28;20039;-66
2023/08/27 08:20:43;;;;;;;7.28;4.68;;;;;;;18.57;100.00;99687.69;5091658;28;20059;-66
2023/08/27 08:23:09;;;;;;;4.68;4.00;;;;;;;18.59;100.00;99690.16;5092017;28;20085;-65
2023/08/27 08:25:35;;;;;;;8.13;4.85;;;;;;;18.59;100.00;99693.66;5091920;28;20461;-65
2023/08/27 08:28:00;;;;;;;5.63;4.00;;;;;;;18.68;100.00;99699.53;5091964;28;20038;-65
2023/08/27 08:30:26;;;;;;;8.63;4.57;;;;;;;18.68;100.00;99686.03;5091606;28;20044;-65
2023/08/27 08:32:52;;;;;;;6.20;4.15;;;;;;;18.74;100.00;99697.75;5091896;28;20032;-65
2023/08/27 08:35:17;;;;;;;9.32;4.55;;;;;;;18.83;100.00;99715.19;5091824;28;20040;-65
2023/08/27 08:37:44;;;;;;;8.50;4.32;;;;;;;18.84;100.00;99720.34;5091781;28;20039;-65
2023/08/27 08:40:14;;;;;;;6.45;4.22;;;;;;;18.92;100.00;99703.78;5091511;28;20071;-65
2023/08/27 08:42:58;;;;;;;5.93;4.07;;;;;;;18.96;100.00;99696.84;5091830;28;20040;-65
2023/08/27 08:45:39;;;;;;;6.03;3.92;;;;;;;19.03;100.00;99691.28;5091727;28;20067;-64
2023/08/27 08:48:06;;;;;;;7.93;4.18;;;;;;;19.08;100.00;99682.47;5091632;28;20040;-65
2023/08/27 08:50:35;;;;;;;4.07;3.33;;;;;;;19.19;100.00;99676.22;5091466;28;20036;-65
2023/08/27 08:53:08;;;;;;;7.63;3.88;;;;;;;19.29;100.00;99686.34;5091618;28;20073;-65
2023/08/27 08:55:35;;;;;;;5.32;3.30;;;;;;;19.37;100.00;99689.50;5091802;28;20462;-65
2023/08/27 08:58:08;;;;;;;7.07;3.72;;;;;;;19.49;100.00;99689.41;5091650;28;20134;-65
2023/08/27 09:00:35;;;;;;;5.53;3.55;;;;;;;19.64;100.00;99681.59;5091483;28;20415;-65
2023/08/27 09:03:02;;;;;;;5.25;3.13;;;;;;;19.81;100.00;99678.84;5091577;28;20016;-65
2023/08/27 09:05:28;;;;;;;6.47;3.47;;;;;;;19.90;100.00;99699.00;5091648;28;20043;-66
2023/08/27 09:07:54;;;;;;;5.28;3.20;;;;;;;20.01;100.00;99708.06;5093073;28;20028;-65
2023/08/27 09:10:22;;;;;;;7.03;3.58;;;;;;;20.07;100.00;99704.38;5095182;28;20043;-65
2023/08/27 09:12:48;;;;;;;;;;;;;;;20.20;100.00;99697.81;5095781;28;20036;-65
2023/08/27 09:15:13;;;;;;;5.60;3.33;;;;;;;20.28;100.00;99697.41;5095241;28;19912;-66
2023/08/27 09:17:39;;;;;;;5.18;3.05;;;;;;;20.24;100.00;99690.84;5095336;28;20036;-52
2023/08/27 09:20:06;;;;;;;5.82;3.38;;;;;;;20.22;100.00;99684.88;5094952;28;20489;-57
2023/08/27 09:22:35;;;;;;;7.75;3.17;;;;;;;20.29;100.00;99683.63;5095278;28;20032;-53
2023/08/27 09:25:00;;;;;;;7.82;3.03;;;;;;;20.27;100.00;99688.44;5095083;28;20031;-55
2023/08/27 09:27:27;;;;;;;3.97;2.60;;;;;;;20.20;100.00;99679.69;5095081;28;20394;-55
2023/08/27 09:29:53;;;;;;;5.57;3.10;;;;;;;20.15;100.00;99671.53;5094637;28;20040;-56
2023/08/27 09:32:23;;;;;;;7.57;3.00;;;;;;;20.11;100.00;99650.66;5094987;28;20044;-57
2023/08/27 09:35:00;;;;;;;5.70;3.05;;;;;;;20.07;100.00;99642.19;5094925;28;20051;-54
2023/08/27 09:37:28;;;;;;;4.68;2.58;;;;;;;20.15;100.00;99644.50;5094845;28;20398;-54
2023/08/27 09:39:54;;;;;;;7.03;2.88;;;;;;;20.10;100.00;99644.44;5094473;28;20067;-56
2023/08/27 09:42:21;;;;;;;7.63;2.80;;;;;;;20.23;100.00;99657.56;5094647;28;20085;-57
2023/08/27 09:44:51;;;;;;;3.53;2.45;;;;;;;20.47;100.00;99668.16;5094535;28;20119;-53
2023/08/27 09:47:17;;;;;;;4.53;2.55;;;;;;;20.60;100.00;99670.47;5094562;28;20555;-53
2023/08/27 09:49:43;;;;;;;3.83;2.67;;;;;;;20.76;100.00;99666.91;5094309;28;20035;-54
2023/08/27 09:52:08;;;;;;;5.13;2.53;;;;;;;20.79;97.46;99668.25;5094570;28;20047;-54
2023/08/27 09:54:34;;;;;;;4.40;2.75;;;;;;;20.75;98.41;99664.44;5094512;28;20057;-58
2023/08/27 09:56:59;;;;;;;3.42;2.65;;;;;;;20.83;99.48;99648.56;5094354;28;20067;-59
2023/08/27 09:59:26;;;;;;;4.53;2.97;;;;;;;20.90;99.08;99644.84;5094099;28;20043;-57
2023/08/27 10:01:52;;;;;;;4.47;2.55;;;;;;;20.96;96.67;99654.66;5094396;28;20035;-58
2023/08/27 10:04:19;;;;;;;4.70;2.50;;;;;;;20.93;97.75;99649.72;5094284;28;20036;-59
2023/08/27 10:06:45;;;;;;;57.67;7.47;;;;;;;21.02;95.89;99650.91;5094202;28;20135;-59
2023/08/27 10:09:11;;;;;;;5.75;2.55;;;;;;;20.96;94.78;99643.81;5093964;28;20123;-53
2023/08/27 10:11:37;;;;;;;2.70;2.05;;;;;;;20.96;95.02;99649.22;5093954;28;20044;-62
2023/08/27 10:14:04;;;;;;;5.88;2.30;;;;;;;21.06;94.70;99654.72;5094055;28;20402;-50
2023/08/27 10:16:30;;;;;;;3.60;2.50;;;;;;;21.16;95.53;99648.59;5093998;28;20036;-51
2023/08/27 10:18:57;;;;;;;5.20;2.22;;;;;;;21.16;93.16;99649.41;5093693;28;20070;-60
2023/08/27 10:21:23;;;;;;;6.63;2.53;;;;;;;21.30;93.27;99644.44;5093904;28;20024;-56
2023/08/27 10:23:49;;;;;;;4.55;2.42;;;;;;;21.46;95.73;99653.50;5093800;28;20448;-63
2023/08/27 10:26:15;;;;;;;4.20;2.78;;;;;;;21.46;97.23;99642.69;5093808;28;20043;-63
2023/08/27 10:28:41;;;;;;;5.45;2.70;;;;;;;21.60;94.01;99641.97;5093776;28;20482;-63
2023/08/27 10:31:07;;;;;;;5.85;3.13;;;;;;;21.71;92.87;99637.41;5093544;28;20380;-64
2023/08/27 10:33:33;;;;;;;4.90;2.33;;;;;;;21.89;90.02;99638.91;5093834;28;20575;-63
2023/08/27 10:36:04;;;;;;;2.40;1.90;;;;;;;21.94;88.48;99628.91;5093393;28;20119;-64
2023/08/27 10:38:33;;;;;;;6.10;2.58;;;;;;;22.08;88.51;99633.84;5093663;28;20166;-63
2023/08/27 10:40:59;;;;;;;4.15;2.10;;;;;;;22.04;86.61;99639.00;5093488;28;20410;-64
2023/08/27 10:43:35;;;;;;;3.25;2.20;;;;;;;22.20;85.65;99648.03;5093486;28;20042;-64
2023/08/27 10:46:17;;;;;;;4.53;2.28;;;;;;;22.32;84.33;99658.69;5093513;28;20032;-64
2023/08/27 10:48:48;;;;;;;3.10;2.03;;;;;;;22.42;86.19;99654.09;5093564;28;20107;-64
2023/08/27 10:51:15;;;;;;;3.60;1.90;;;;;;;22.44;78.65;99635.69;5093363;28;20037;-64
2023/08/27 10:53:55;;;;;;;2.88;1.80;;;;;;;22.40;77.24;99650.84;5093409;28;20561;-64
2023/08/27 10:56:41;;;;;;;3.30;1.75;;;;;;;22.45;80.03;99652.78;5093339;28;20051;-64
2023/08/27 10:59:24;;;;;;;2.95;1.80;;;;;;;22.50;80.70;99647.38;5093302;28;20051;-65
2023/08/27 11:02:07;;;;;;;5.55;2.03;;;;;;;22.41;80.71;99630.75;5093381;28;20039;-64
2023/08/27 11:04:38;;;;;;;4.03;1.92;;;;;;;22.37;81.80;99629.69;5093165;28;20036;-65
2023/08/27 11:07:14;;;;;;;2.90;1.90;;;;;;;22.20;80.54;99632.59;5093008;28;20036;-65
2023/08/27 11:09:49;;;;;;;3.17;1.90;;;;;;;22.30;76.56;99629.13;5092953;28;20122;-64
2023/08/27 11:12:20;;;;;;;3.42;2.10;;;;;;;22.35;77.61;99623.69;5093133;28;20439;-64
2023/08/27 11:14:45;;;;;;;3.75;1.98;;;;;;;22.41;78.13;99630.75;5092933;28;20027;-65
2023/08/27 11:17:11;;;;;;;6.82;1.90;;;;;;;22.58;79.21;99627.84;5092831;28;20036;-64
2023/08/27 11:19:37;;;;;;;4.22;1.85;;;;;;;22.77;76.70;99621.94;5092631;28;20043;-62
2023/08/27 11:22:14;;;;;;;2.33;1.70;;;;;;;22.66;74.18;99619.19;5092733;28;20032;-64
2023/08/27 11:24:42;;;;;;;2.97;1.80;;;;;;;22.72;76.13;99620.00;5092907;28;20082;-63
2023/08/27 11:27:09;;;;;;;2.72;1.95;;;;;;;22.72;76.15;99631.69;5092543;28;20047;-64
2023/08/27 11:29:41;;;;;;;4.35;1.70;;;;;;;22.84;79.68;99620.59;5080378;28;20666;-64
2023/08/27 11:32:08;;;;;;;3.15;1.52;;;;;;;22.70;78.02;99608.63;5081672;28;20036;-62
2023/08/27 11:34:35;;;;;;;2.55;1.70;;;;;;;22.59;75.44;99618.63;5092458;28;20032;-64
2023/08/27 11:37:01;;;;;;;4.63;1.80;;;;;;;22.66;72.99;99618.38;5092140;28;20131;-62
2023/08/27 11:39:27;;;;;;;2.17;1.90;;;;;;;22.60;72.51;99624.88;5091744;28;20577;-62
2023/08/27 11:41:52;;;;;;;2.58;1.95;;;;;;;22.70;72.22;99619.47;5091137;28;20040;-62
2023/08/27 11:44:18;;;;;;;2.53;2.00;;;;;;;23.03;73.86;99607.34;5092164;28;20024;-63
2023/08/27 11:46:44;;;;;;;3.78;2.00;;;;;;;23.66;67.89;99615.19;5092220;28;20409;-62
2023/08/27 11:49:12;;;;;;;2.45;1.70;;;;;;;24.34;64.21;99623.75;5091518;28;20036;-62
2023/08/27 11:51:40;;;;;;;2.50;1.48;;;;;;;24.21;62.39;99621.59;5092000;28;20405;-64
2023/08/27 11:54:07;;;;;;;5.75;2.50;;;;;;;24.09;66.65;99620.00;5091979;28;20043;-64
2023/08/27 11:56:35;;;;;;;4.90;1.90;;;;;;;23.61;68.30;99629.63;5092028;28;20031;-62
2023/08/27 11:59:03;;;;;;;2.92;1.73;;;;;;;23.56;63.89;99627.69;5090733;28;20035;-63
2023/08/27 12:01:28;;;;;;;2.03;1.80;;;;;;;23.37;66.70;99632.06;5074310;28;20552;-63
2023/08/27 12:03:54;;;;;;;2.15;1.60;;;;;;;23.16;71.61;99633.16;5091709;28;20036;-63
2023/08/27 12:06:24;;;;;;;2.60;1.73;;;;;;;22.90;74.40;99633.13;5080564;28;20036;-63
2023/08/27 12:08:54;;;;;;;3.30;2.08;;;;;;;22.76;77.37;99629.25;5079193;28;20032;-64
2023/08/27 12:11:25;;;;;;;1.80;1.50;;;;;;;22.64;73.79;99624.06;5086632;28;20141;-62
2023/08/27 12:13:53;;;;;;;3.25;1.80;;;;;;;22.54;72.20;99615.06;5091837;28;20028;-62
2023/08/27 12:16:34;;;;;;;3.08;1.92;;;;;;;22.52;75.79;99614.53;5091631;28;20440;-62
2023/08/27 12:19:08;;;;;;;2.85;1.75;;;;;;;22.48;74.82;99622.38;5091158;28;20064;-61
2023/08/27 12:21:56;;;;;;;3.17;1.90;;;;;;;22.43;73.71;99619.63;5090384;28;20075;-61
2023/08/27 12:24:35;;;;;;;3.95;1.65;;;;;;;22.61;71.34;99610.19;5091953;28;20597;-63
2023/08/27 12:27:09;;;;;;;2.85;2.03;;;;;;;22.61;73.04;99602.06;5091507;28;20047;-64
2023/08/27 12:29:39;;;;;;;3.72;2.00;;;;;;;22.64;71.92;99612.41;5090337;28;20532;-63
2023/08/27 12:32:12;;;;;;;3.50;2.00;;;;;;;22.62;72.16;99622.69;5091211;28;20048;-62
2023/08/27 12:34:39;;;;;;;3.50;2.05;;;;;;;22.52;74.21;99638.97;5091734;28;20487;-63
2023/08/27 12:37:05;;;;;;;5.25;2.05;;;;;;;22.41;75.40;99647.03;5091623;28;20441;-63
2023/08/27 12:39:31;;;;;;;2.50;1.85;;;;;;;22.18;75.79;99644.78;5091013;28;20028;-64
2023/08/27 12:41:58;;;;;;;3.70;2.20;;;;;;;22.13;76.15;99634.72;5091460;28;20036;-64
2023/08/27 12:44:23;;;;;;;3.35;1.83;;;;;;;21.92;78.31;99641.91;5095688;28;20036;-62
2023/08/27 12:46:49;;;;;;;3.15;1.70;;;;;;;21.93;77.39;99642.72;5095709;28;20596;-64
2023/08/27 12:49:14;;;;;;;2.53;1.95;;;;;;;21.81;76.92;99642.91;5094986;28;20509;-63
2023/08/27 12:51:40;;;;;;;2.88;2.00;;;;;;;21.63;80.40;99646.84;5095642;28;20043;-58
2023/08/27 12:54:05;;;;;;;3.35;1.85;;;;;;;21.58;82.38;99646.84;5087525;28;20380;-62
2023/08/27 12:56:33;;;;;;;3.30;2.53;;;;;;;21.48;80.14;99645.94;5083423;28;20032;-61
2023/08/27 12:58:59;;;;;;;3.60;2.28;;;;;;;21.43;81.83;99652.13;5066157;28;20031;-62
2023/08/27 13:01:26;;;;;;;3.38;2.10;;;;;;;21.26;85.56;99660.34;5083321;28;20647;-61
2023/08/27 13:03:52;;;;;;;4.20;2.45;;;;;;;21.21;84.94;99665.72;5082059;28;20032;-62
2023/08/27 13:06:17;;;;;;;4.50;2.38;;;;;;;21.22;85.23;99663.84;5084136;28;20043;-62
2023/08/27 13:08:43;;;;;;;3.42;2.00;;;;;;;21.27;84.33;99669.31;5084860;28;20086;-62
2023/08/27 13:11:08;;;;;;;3.88;2.00;;;;;;;21.29;86.26;99665.28;5083048;28;20406;-62
2023/08/27 13:13:34;;;;;;;3.25;2.10;;;;;;;21.34;86.30;99650.97;5083598;28;20045;-60
2023/08/27 13:15:59;;;;;;;3.15;1.90;;;;;;;21.35;84.60;99661.53;5084117;28;20040;-62
2023/08/27 13:18:24;;;;;;;2.85;2.15;;;;;;;21.45;85.66;99662.69;5083010;28;20044;-63
2023/08/27 13:20:50;;;;;;;2.30;2.08;;;;;;;21.49;85.53;99652.97;5083873;28;20035;-62
2023/08/27 13:23:16;;;;;;;4.25;2.03;;;;;;;21.43;85.74;99649.41;5084348;28;20446;-61
2023/08/27 13:25:42;;;;;;;3.17;2.40;;;;;;;21.49;86.12;99655.69;5068428;28;20047;-61
2023/08/27 13:28:07;;;;;;;3.55;2.38;;;;;;;21.48;87.95;99648.66;5083246;28;20032;-62
2023/08/27 13:30:33;;;;;;;3.40;2.10;;;;;;;21.46;89.01;99648.91;5082437;28;20491;-61
2023/08/27 13:32:59;;;;;;;3.17;2.03;;;;;;;21.47;87.20;99644.31;5054015;28;20111;-62
2023/08/27 13:35:24;;;;;;;3.55;1.70;;;;;;;21.47;80.06;99636.19;5094834;28;20116;-62
2023/08/27 13:37:50;;;;;;;2.78;1.40;;;;;;;21.44;79.23;99644.81;5094774;28;20032;-62
2023/08/27 13:40:16;;;;;;;1.80;1.38;;;;;;;21.42;78.81;99636.94;5094082;28;20039;-62
2023/08/27 13:42:41;;;;;;;2.45;1.30;;;;;;;21.39;79.64;99649.13;5094663;28;20087;-61
2023/08/27 13:45:07;;;;;;;3.33;1.67;;;;;;;21.39;78.49;99651.84;5094441;28;20062;-61
2023/08/27 13:47:32;;;;;;;2.45;1.48;;;;;;;21.38;76.90;99652.06;5094754;28;20406;-59
2023/08/27 13:49:58;;;;;;;5.82;1.33;;;;;;;21.31;78.14;99649.59;5092652;28;20512;-60
2023/08/27 13:52:24;;;;;;;2.58;1.40;;;;;;;21.31;79.82;99646.06;5092853;28;20071;-61
2023/08/27 13:54:50;;;;;;;2.55;1.60;;;;;;;21.23;78.12;99649.22;5093292;28;20064;-60
2023/08/27 13:57:15;;;;;;;1.73;1.42;;;;;;;21.19;78.48;99654.34;5093206;28;20070;-61
2023/08/27 13:59:41;;;;;;;1.75;1.20;;;;;;;21.07;79.77;99653.69;5093725;28;20055;-62
2023/08/27 14:02:08;;;;;;;2.17;1.30;;;;;;;20.99;78.12;99654.13;5094512;28;20397;-60
2023/08/27 14:04:34;;;;;;;2.45;1.40;;;;;;;20.93;79.85;99664.09;5094400;28;20039;-62
2023/08/27 14:06:59;;;;;;;3.38;1.33;;;;;;;20.88;79.79;99677.59;5094282;28;20531;-62
2023/08/27 14:09:25;;;;;;;1.60;1.30;;;;;;;20.69;78.75;99670.88;5094007;28;20043;-60
2023/08/27 14:11:50;;;;;;;1.83;1.67;;;;;;;20.55;80.75;99665.84;5094133;28;20036;-60
2023/08/27 14:14:15;;;;;;;2.05;1.33;;;;;;;20.52;82.42;99671.75;5094131;28;20131;-60
2023/08/27 14:16:41;;;;;;;2.05;1.42;;;;;;;20.45;83.33;99665.72;5092923;28;20113;-61
2023/08/27 14:19:06;;;;;;;2.35;1.45;;;;;;;20.41;81.43;99661.88;5093876;28;20063;-61
2023/08/27 14:21:32;;;;;;;2.28;1.30;;;;;;;20.37;80.97;99666.13;5093924;28;20085;-61
2023/08/27 14:23:57;;;;;;;3.00;1.20;;;;;;;20.25;80.13;99668.94;5093950;28;20032;-61
2023/08/27 14:26:22;;;;;;;2.60;1.30;;;;;;;20.19;79.24;99680.75;5093947;28;20119;-61
2023/08/27 14:28:48;;;;;;;3.25;1.30;;;;;;;20.15;79.39;99687.75;5093985;28;20036;-61
2023/08/27 14:31:13;;;;;;;1.42;1.08;;;;;;;20.12;80.16;99687.41;5093669;28;20064;-61
2023/08/27 14:33:39;;;;;;;1.67;1.20;;;;;;;20.01;78.98;99691.84;5093786;28;20032;-61
2023/08/27 14:36:04;;;;;;;1.40;1.20;;;;;;;20.02;80.04;99686.22;5093697;28;20044;-59
2023/08/27 14:38:29;;;;;;;4.55;1.27;;;;;;;19.96;78.89;99684.50;5093606;28;20117;-60
2023/08/27 14:40:55;;;;;;;2.92;1.50;;;;;;;19.94;79.56;99675.00;5093634;28;20479;-59
2023/08/27 14:43:20;;;;;;;4.00;1.70;;;;;;;19.93;79.93;99678.78;5093681;28;20040;-60
2023/08/27 14:45:46;;;;;;;1.40;0.90;;;;;;;19.90;80.89;99676.56;5093609;28;20505;-61
2023/08/27 14:48:11;;;;;;;3.42;1.60;;;;;;;19.83;82.33;99670.53;5093566;28;20097;-62
2023/08/27 14:50:36;;;;;;;1.75;1.40;;;;;;;19.84;83.05;99677.56;5093168;28;20044;-66
2023/08/27 14:53:05;;;;;;;2.08;1.48;;;;;;;19.85;81.09;99679.19;5093451;28;20032;-66
2023/08/27 14:55:30;;;;;;;2.22;1.20;;;;;;;19.85;82.25;99688.13;5093414;28;20044;-65
2023/08/27 14:57:56;;;;;;;1.40;1.20;;;;;;;19.84;82.56;99682.97;5093428;28;20028;-66
2023/08/27 15:00:21;;;;;;;1.52;1.02;;;;;;;19.84;81.09;99685.66;5093150;28;20040;-67
2023/08/27 15:02:47;;;;;;;2.33;1.50;;;;;;;19.83;81.61;99694.84;5093291;28;20488;-66
2023/08/27 15:05:12;;;;;;;2.85;2.20;;;;;;;19.79;82.48;99698.03;5092162;28;20554;-66
2023/08/27 15:07:38;;;;;;;3.88;2.83;;;;;;;19.75;82.45;99701.47;5093145;28;20459;-67
2023/08/27 15:10:05;;;;;;;3.33;1.85;;;;;;;19.72;82.13;99691.16;5092833;28;20214;-66
2023/08/27 15:12:31;;;;;;;2.05;1.45;;;;;;;19.67;82.15;99686.47;5092979;28;20032;-67
2023/08/27 15:14:56;;;;;;;2.55;1.85;;;;;;;19.63;82.86;99685.34;5093013;28;20044;-67
2023/08/27 15:17:22;;;;;;;3.38;1.20;;;;;;;19.60;82.84;99687.72;5092842;28;20088;-66
2023/08/27 15:19:47;;;;;;;1.67;1.15;;;;;;;19.44;85.35;99687.44;5092642;28;20047;-67
2023/08/27 15:22:13;;;;;;;1.60;1.33;;;;;;;19.45;86.68;99690.97;5092632;28;20084;-66
2023/08/27 15:24:38;;;;;;;3.97;1.60;;;;;;;19.40;86.31;99690.88;5092637;28;20123;-66
2023/08/27 15:27:04;;;;;;;2.70;1.50;;;;;;;19.35;88.25;99688.91;5092843;28;20028;-65
2023/08/27 15:29:29;;;;;;;2.55;1.20;;;;;;;19.32;86.96;99697.50;5092413;28;20034;-66
2023/08/27 15:31:55;;;;;;;1.52;1.25;;;;;;;19.29;87.73;99686.34;5092659;28;20514;-67
2023/08/27 15:34:21;;;;;;;1.70;1.08;;;;;;;19.19;87.87;99679.72;5092518;28;20101;-68
2023/08/27 15:36:46;;;;;;;1.52;1.10;;;;;;;19.20;87.35;99684.06;5092492;28;20078;-67
2023/08/27 15:39:12;;;;;;;2.58;1.55;;;;;;;19.13;87.84;99694.19;5092223;28;20028;-67
2023/08/27 15:41:37;;;;;;;1.85;1.33;;;;;;;19.10;87.34;99693.84;5092541;28;20128;-67
2023/08/27 15:44:03;;;;;;;2.10;1.00;;;;;;;19.08;88.33;99680.59;5092538;28;20042;-68
2023/08/27 15:46:29;;;;;;;4.00;1.45;;;;;;;19.06;88.99;99669.22;5092385;28;20032;-67
2023/08/27 15:48:55;;;;;;;2.17;1.20;;;;;;;19.10;89.04;99686.56;5092114;28;20036;-67